Time;durP1;ratioP1;P1;durP2;ratioP2;P2;SDS_P1;SDS_P2;PMS_P1;PMS_P2;Temp;Humidity;BMP_temperature;BMP_pressure;BME280_temperature;BME280_humidity;BME280_pressure;Samples;Min_cycle;Max_cycle;Signal;HPM_P1;HPM_P2
2024/02/19 00:00:14;;;;;;;7.97;7.18;;;11.30;99.90;;;;;;5093429;28;20307;-79
2024/02/19 00:02:45;;;;;;;7.97;7.28;;;11.30;99.90;;;;;;5094216;28;20667;-79
2024/02/19 00:05:13;;;;;;;7.32;6.40;;;11.30;99.90;;;;;;5095344;28;20228;-82
2024/02/19 00:07:44;;;;;;;7.45;6.80;;;11.30;99.90;;;;;;5094328;28;20227;-82
2024/02/19 00:10:11;;;;;;;6.20;5.70;;;11.30;99.90;;;;;;5095087;28;20235;-82
2024/02/19 00:15:23;;;;;;;7.53;6.80;;;11.30;99.90;;;;;;5095351;28;20231;-81
2024/02/19 00:18:01;;;;;;;6.70;6.10;;;11.30;99.90;;;;;;5094156;28;20303;-80
2024/02/19 00:20:31;;;;;;;12.80;11.45;;;11.30;99.90;;;;;;5093654;28;20220;-81
2024/02/19 00:22:59;;;;;;;12.40;11.13;;;11.30;99.90;;;;;;5095120;28;20231;-80
2024/02/19 00:25:41;;;;;;;10.43;9.43;;;11.30;99.90;;;;;;5094728;28;20566;-81
2024/02/19 00:28:14;;;;;;;11.82;10.10;;;11.30;99.90;;;;;;5094500;28;20219;-81
2024/02/19 00:30:53;;;;;;;18.13;13.40;;;11.40;99.90;;;;;;5095015;28;20227;-78
2024/02/19 00:33:21;;;;;;;8.70;7.65;;;11.30;99.90;;;;;;5094137;28;20238;-78
2024/02/19 00:35:49;;;;;;;5.70;5.20;;;11.30;99.90;;;;;;5094640;28;20223;-81
2024/02/19 00:38:24;;;;;;;7.60;5.75;;;11.40;99.90;;;;;;5074050;28;20235;-81
2024/02/19 00:40:54;;;;;;;6.40;5.85;;;11.30;99.90;;;;;;5093931;28;20219;-81
2024/02/19 00:43:23;;;;;;;7.35;6.57;;;11.30;99.90;;;;;;5094157;28;20227;-81
2024/02/19 00:45:52;;;;;;;7.45;6.38;;;11.30;99.90;;;;;;5094048;28;20558;-79
2024/02/19 00:48:24;;;;;;;6.95;6.35;;;11.30;99.90;;;;;;5084337;28;20608;-79
2024/02/19 00:50:52;;;;;;;7.55;6.65;;;11.30;99.90;;;;;;5094911;28;20306;-81
2024/02/19 00:53:20;;;;;;;6.22;5.63;;;11.30;99.90;;;;;;5093974;28;20223;-79
2024/02/19 00:55:47;;;;;;;6.75;6.07;;;11.30;99.90;;;;;;5094234;28;20305;-81
2024/02/19 00:58:14;;;;;;;6.75;6.15;;;11.30;99.90;;;;;;5094806;28;20742;-81
2024/02/19 01:00:42;;;;;;;6.68;6.00;;;11.30;99.90;;;;;;5093808;28;20231;-78
2024/02/19 01:03:13;;;;;;;6.93;6.22;;;11.30;99.90;;;;;;5094327;28;20238;-78
2024/02/19 01:05:40;;;;;;;5.68;5.20;;;11.40;99.90;;;;;;5094180;28;20269;-80
2024/02/19 01:08:10;;;;;;;6.25;5.75;;;11.40;99.90;;;;;;5094461;28;20211;-81
2024/02/19 01:10:38;;;;;;;5.88;5.30;;;11.40;99.90;;;;;;5093411;28;20237;-78
2024/02/19 01:13:05;;;;;;;7.45;6.75;;;11.40;99.90;;;;;;5083529;28;20230;-77
2024/02/19 01:15:32;;;;;;;5.38;4.95;;;11.40;99.90;;;;;;5093269;28;20674;-78
2024/02/19 01:17:59;;;;;;;6.30;5.70;;;11.40;99.90;;;;;;5094331;28;20223;-81
2024/02/19 01:20:28;;;;;;;5.32;4.88;;;11.50;99.90;;;;;;5093528;28;20571;-81
2024/02/19 01:22:58;;;;;;;6.78;6.10;;;11.50;99.90;;;;;;5093796;28;20250;-81
2024/02/19 01:25:28;;;;;;;5.35;4.88;;;11.50;99.90;;;;;;5093287;28;20632;-81
2024/02/19 01:27:55;;;;;;;5.25;4.78;;;11.50;99.90;;;;;;5093843;28;20728;-81
2024/02/19 01:30:22;;;;;;;6.97;5.00;;;11.50;99.90;;;;;;5092901;28;20310;-81
2024/02/19 01:32:49;;;;;;;5.85;5.30;;;11.60;99.90;;;;;;5093518;28;20238;-81
2024/02/19 01:35:16;;;;;;;5.97;5.43;;;11.50;99.90;;;;;;5093728;28;20227;-81
2024/02/19 01:37:47;;;;;;;5.28;4.82;;;11.50;99.90;;;;;;5092912;28;20685;-79
2024/02/19 01:40:15;;;;;;;5.28;4.78;;;11.50;99.90;;;;;;5093103;28;20247;-81
2024/02/19 01:42:42;;;;;;;4.60;4.20;;;11.40;99.90;;;;;;5093205;28;20696;-81
2024/02/19 01:45:25;;;;;;;4.40;4.10;;;11.40;99.90;;;;;;5093600;28;20307;-81
2024/02/19 01:47:53;;;;;;;6.65;4.60;;;11.50;99.90;;;;;;5093557;28;20660;-81
2024/02/19 01:50:21;;;;;;;5.20;4.80;;;11.50;99.90;;;;;;5093391;28;20220;-81
2024/02/19 01:52:50;;;;;;;5.60;4.75;;;11.50;99.90;;;;;;5092471;28;20236;-79
2024/02/19 01:55:18;;;;;;;4.40;4.00;;;11.50;99.90;;;;;;5093332;28;20317;-79
2024/02/19 01:57:49;;;;;;;5.63;5.13;;;11.50;99.90;;;;;;5092826;28;20745;-79
2024/02/19 02:00:18;;;;;;;4.80;4.40;;;11.50;99.90;;;;;;5093418;28;20254;-79
2024/02/19 02:02:46;;;;;;;5.00;4.57;;;11.60;99.90;;;;;;5092901;28;20302;-79
2024/02/19 02:05:13;;;;;;;5.07;4.68;;;11.70;99.90;;;;;;5093204;28;20228;-81
2024/02/19 02:07:41;;;;;;;4.68;4.28;;;11.70;99.90;;;;;;5092847;28;20234;-81
2024/02/19 02:10:10;;;;;;;4.63;4.07;;;11.70;99.90;;;;;;5093202;28;20227;-81
2024/02/19 02:12:39;;;;;;;4.93;4.53;;;11.70;99.90;;;;;;5092632;28;20266;-81
2024/02/19 02:15:07;;;;;;;4.82;4.43;;;11.70;99.90;;;;;;5093387;28;20294;-79
2024/02/19 02:17:34;;;;;;;4.45;4.05;;;11.80;99.90;;;;;;5093009;28;20292;-81
2024/02/19 02:20:01;;;;;;;5.82;4.25;;;11.80;99.90;;;;;;5092642;28;20594;-81
2024/02/19 02:22:28;;;;;;;4.10;3.80;;;12.00;99.90;;;;;;5093226;28;20692;-79
2024/02/19 02:24:57;;;;;;;4.30;3.92;;;12.00;99.90;;;;;;5092179;28;20223;-79
2024/02/19 02:27:25;;;;;;;4.15;3.85;;;12.10;99.90;;;;;;5092919;28;20230;-79
2024/02/19 02:29:52;;;;;;;4.20;3.80;;;12.00;99.90;;;;;;5092425;28;20227;-79
2024/02/19 02:32:19;;;;;;;4.28;3.97;;;12.00;99.90;;;;;;5092505;28;20242;-79
2024/02/19 02:34:46;;;;;;;4.32;4.03;;;12.00;99.90;;;;;;5083512;28;20251;-79
2024/02/19 02:37:14;;;;;;;4.25;3.85;;;12.00;99.90;;;;;;5092994;28;20691;-81
2024/02/19 02:39:42;;;;;;;4.20;3.90;;;12.00;99.90;;;;;;5092020;28;20215;-81
2024/02/19 02:42:09;;;;;;;3.90;3.60;;;12.00;99.90;;;;;;5095171;28;20219;-79
2024/02/19 02:44:37;;;;;;;3.50;3.30;;;12.10;99.90;;;;;;5096299;28;20617;-79
2024/02/19 02:47:04;;;;;;;4.30;3.90;;;12.10;99.90;;;;;;5086755;28;20223;-78
2024/02/19 02:49:31;;;;;;;3.83;3.53;;;12.10;99.90;;;;;;5096755;28;20231;-79
2024/02/19 02:52:01;;;;;;;4.70;4.20;;;12.00;99.90;;;;;;5096564;28;20224;-79
2024/02/19 02:54:28;;;;;;;4.20;3.80;;;12.00;99.90;;;;;;5096806;28;20245;-81
2024/02/19 02:56:55;;;;;;;3.58;3.30;;;12.00;99.90;;;;;;5096550;28;20247;-81
2024/02/19 02:59:22;;;;;;;3.72;3.42;;;12.00;99.90;;;;;;5096879;28;20269;-79
2024/02/19 03:01:51;;;;;;;3.38;3.08;;;12.00;99.90;;;;;;5096237;28;20220;-79
2024/02/19 03:04:18;;;;;;;3.47;3.25;;;12.00;99.90;;;;;;5096591;28;20251;-79
2024/02/19 03:06:45;;;;;;;3.67;3.38;;;12.10;99.90;;;;;;5096247;28;20224;-79
2024/02/19 03:09:12;;;;;;;3.72;3.42;;;12.10;99.90;;;;;;5096414;28;20230;-79
2024/02/19 03:11:39;;;;;;;3.80;3.50;;;12.10;99.90;;;;;;5096489;28;20314;-79
2024/02/19 03:14:06;;;;;;;4.20;3.90;;;12.10;99.90;;;;;;5096284;28;20216;-79
2024/02/19 03:16:34;;;;;;;3.95;3.65;;;12.10;99.90;;;;;;5096710;28;20340;-81
2024/02/19 03:19:04;;;;;;;4.10;3.80;;;12.20;99.90;;;;;;5096007;28;20303;-82
2024/02/19 03:21:32;;;;;;;4.20;3.80;;;12.20;99.90;;;;;;5096338;28;20238;-81
2024/02/19 03:24:00;;;;;;;3.63;3.42;;;12.20;99.90;;;;;;5095977;28;20384;-79
2024/02/19 03:26:27;;;;;;;3.80;3.47;;;12.20;99.90;;;;;;5096990;28;20223;-81
2024/02/19 03:28:54;;;;;;;3.65;3.35;;;12.30;99.90;;;;;;5096150;28;20302;-81
2024/02/19 03:31:21;;;;;;;3.08;2.88;;;12.30;99.90;;;;;;5096031;28;20703;-81
2024/02/19 03:33:48;;;;;;;3.33;2.97;;;12.30;99.90;;;;;;5096008;28;20223;-81
2024/02/19 03:36:17;;;;;;;2.90;2.70;;;12.40;99.90;;;;;;5096663;28;20242;-82
2024/02/19 03:38:44;;;;;;;2.88;2.67;;;12.40;99.90;;;;;;5096946;28;20245;-81
2024/02/19 03:41:13;;;;;;;2.55;2.35;;;12.40;99.90;;;;;;5097262;28;20541;-81
2024/02/19 03:43:40;;;;;;;3.38;3.08;;;12.50;99.90;;;;;;5096260;28;20220;-79
2024/02/19 03:46:07;;;;;;;2.40;2.20;;;12.50;99.90;;;;;;5095826;28;20306;-79
2024/02/19 03:48:34;;;;;;;2.58;2.40;;;12.50;99.90;;;;;;5095745;28;20379;-79
2024/02/19 03:51:01;;;;;;;2.85;2.65;;;12.50;99.90;;;;;;5095576;28;20235;-79
2024/02/19 03:53:30;;;;;;;2.90;2.70;;;12.50;99.90;;;;;;5095003;28;20234;-78
2024/02/19 03:55:58;;;;;;;2.88;2.53;;;12.60;99.90;;;;;;5095041;28;20227;-79
2024/02/19 03:58:25;;;;;;;2.67;2.47;;;12.60;99.90;;;;;;5095791;28;20227;-79
2024/02/19 04:00:52;;;;;;;2.42;2.22;;;12.60;99.90;;;;;;5095658;28;20276;-79
2024/02/19 04:03:19;;;;;;;2.53;2.33;;;12.60;99.90;;;;;;5096550;28;20672;-81
2024/02/19 04:05:47;;;;;;;2.30;2.10;;;12.60;99.90;;;;;;5095372;28;20223;-80
2024/02/19 04:08:13;;;;;;;1.70;1.60;;;12.60;99.90;;;;;;5095536;28;20230;-79
2024/02/19 04:10:42;;;;;;;2.30;2.10;;;12.60;99.90;;;;;;5095681;28;20227;-81
2024/02/19 04:13:09;;;;;;;2.08;1.92;;;12.60;99.90;;;;;;5096048;28;20230;-81
2024/02/19 04:15:36;;;;;;;2.15;1.55;;;12.60;99.90;;;;;;5095638;28;20539;-81
2024/02/19 04:18:04;;;;;;;2.17;1.70;;;12.60;99.90;;;;;;5096374;28;20253;-81
2024/02/19 04:20:31;;;;;;;2.25;2.05;;;12.60;99.90;;;;;;5097144;28;20310;-81
2024/02/19 04:22:57;;;;;;;1.58;1.48;;;12.50;99.90;;;;;;5095725;28;20573;-79
2024/02/19 04:25:28;;;;;;;1.65;1.50;;;12.50;99.90;;;;;;5095502;28;20228;-80
2024/02/19 04:27:56;;;;;;;1.70;1.60;;;12.50;99.90;;;;;;5093560;28;20227;-79
2024/02/19 04:30:23;;;;;;;1.50;1.40;;;12.50;99.90;;;;;;5094944;28;20277;-78
2024/02/19 04:32:51;;;;;;;2.47;1.48;;;12.30;99.90;;;;;;5094552;28;20223;-79
2024/02/19 04:35:18;;;;;;;1.40;1.30;;;12.20;99.90;;;;;;5094579;28;20681;-81
2024/02/19 04:37:45;;;;;;;1.73;1.30;;;12.20;99.90;;;;;;5096278;28;20223;-78
2024/02/19 04:40:13;;;;;;;1.42;1.33;;;12.10;99.90;;;;;;5094934;28;20284;-81
2024/02/19 04:42:40;;;;;;;1.48;1.38;;;12.10;99.90;;;;;;5096630;28;20234;-81
2024/02/19 04:45:11;;;;;;;1.60;1.33;;;12.10;99.90;;;;;;5096115;28;20310;-81
2024/02/19 04:47:38;;;;;;;1.75;1.65;;;12.00;99.90;;;;;;5095361;28;20227;-81
2024/02/19 04:50:06;;;;;;;1.63;1.52;;;12.10;99.90;;;;;;5086955;28;20669;-81
2024/02/19 04:52:33;;;;;;;1.38;1.27;;;12.00;99.90;;;;;;5095620;28;20242;-81
2024/02/19 04:55:03;;;;;;;1.13;1.02;;;12.00;99.90;;;;;;5094846;28;20255;-82
2024/02/19 04:57:31;;;;;;;1.25;1.15;;;11.90;99.90;;;;;;5095386;28;20237;-82
2024/02/19 04:59:58;;;;;;;1.92;1.83;;;12.00;99.90;;;;;;5083036;28;20215;-79
2024/02/19 05:02:27;;;;;;;2.08;1.35;;;11.90;99.90;;;;;;5094939;28;20219;-78
2024/02/19 05:04:54;;;;;;;1.90;1.48;;;11.90;99.90;;;;;;5094445;28;20241;-81
2024/02/19 05:07:21;;;;;;;1.50;1.40;;;11.80;99.90;;;;;;5093965;28;20348;-81
2024/02/19 05:09:48;;;;;;;5.55;1.90;;;11.80;99.90;;;;;;5094873;28;20221;-79
2024/02/19 05:12:15;;;;;;;1.70;1.60;;;11.80;99.90;;;;;;5093466;28;20235;-82
2024/02/19 05:14:42;;;;;;;2.85;1.45;;;11.80;99.90;;;;;;5094735;28;20216;-79
2024/02/19 05:17:09;;;;;;;1.80;1.70;;;11.80;99.90;;;;;;5093873;28;20235;-79
2024/02/19 05:19:38;;;;;;;1.83;1.73;;;11.80;99.90;;;;;;5094440;28;20305;-79
2024/02/19 05:22:05;;;;;;;1.75;1.65;;;11.80;99.90;;;;;;5093183;28;20676;-79
2024/02/19 05:24:32;;;;;;;2.35;2.15;;;11.70;99.90;;;;;;5093748;28;20648;-79
2024/02/19 05:27:01;;;;;;;1.67;1.58;;;11.70;99.90;;;;;;5083489;28;20564;-79
2024/02/19 05:29:32;;;;;;;3.05;2.63;;;11.80;99.90;;;;;;5094252;28;20298;-79
2024/02/19 05:31:59;;;;;;;1.70;1.60;;;11.80;99.90;;;;;;5087185;28;20576;-79
2024/02/19 05:34:27;;;;;;;2.08;1.98;;;11.80;99.90;;;;;;5094369;28;20257;-81
2024/02/19 05:36:56;;;;;;;2.47;2.28;;;11.80;99.90;;;;;;5094366;28;20589;-81
2024/02/19 05:39:23;;;;;;;3.58;3.15;;;11.80;99.90;;;;;;5094855;28;20673;-82
2024/02/19 05:41:50;;;;;;;3.88;3.58;;;11.80;99.90;;;;;;5094417;28;20223;-82
2024/02/19 05:44:17;;;;;;;3.95;3.55;;;11.80;99.90;;;;;;5097443;28;20314;-81
2024/02/19 05:46:44;;;;;;;3.95;3.58;;;11.70;99.90;;;;;;5094603;28;20302;-81
2024/02/19 05:49:15;;;;;;;6.85;6.15;;;11.70;99.90;;;;;;5094112;28;20266;-81
2024/02/19 05:51:42;;;;;;;5.90;5.40;;;11.70;99.90;;;;;;5095005;28;20227;-82
2024/02/19 05:54:11;;;;;;;4.50;4.10;;;11.60;99.90;;;;;;5094323;28;20258;-81
2024/02/19 05:56:38;;;;;;;4.05;3.75;;;11.60;99.90;;;;;;5093637;28;20223;-79
2024/02/19 05:59:14;;;;;;;4.55;3.47;;;11.50;99.90;;;;;;5094471;28;20309;-81
2024/02/19 06:01:41;;;;;;;4.80;4.40;;;11.50;99.90;;;;;;5095506;28;20681;-81
2024/02/19 06:04:09;;;;;;;3.67;3.38;;;11.50;99.90;;;;;;5094274;28;20238;-79
2024/02/19 06:06:36;;;;;;;3.28;3.05;;;11.40;99.90;;;;;;5093565;28;20227;-79
2024/02/19 06:09:04;;;;;;;5.85;4.18;;;11.50;99.90;;;;;;5092938;28;20231;-78
2024/02/19 06:11:32;;;;;;;7.72;7.03;;;11.40;99.90;;;;;;5093849;28;20227;-78
2024/02/19 06:14:00;;;;;;;6.90;5.65;;;11.40;99.90;;;;;;5094017;28;20246;-79
2024/02/19 06:16:27;;;;;;;6.82;6.10;;;11.40;99.90;;;;;;5093643;28;20281;-78
2024/02/19 06:18:54;;;;;;;3.60;3.30;;;11.40;99.90;;;;;;5093472;28;20661;-80
2024/02/19 06:21:21;;;;;;;2.47;2.15;;;11.40;99.90;;;;;;5093658;28;20291;-79
2024/02/19 06:23:48;;;;;;;1.73;1.63;;;11.40;99.90;;;;;;5093615;28;20231;-79
2024/02/19 06:26:18;;;;;;;2.58;2.30;;;11.40;99.90;;;;;;5092935;28;20247;-78
2024/02/19 06:28:47;;;;;;;5.15;2.72;;;11.40;99.90;;;;;;5093673;28;20226;-78
2024/02/19 06:31:14;;;;;;;2.08;1.88;;;11.50;99.90;;;;;;5092685;28;20265;-78
2024/02/19 06:33:43;;;;;;;3.75;3.08;;;11.40;99.90;;;;;;5094602;28;20235;-78
2024/02/19 06:36:10;;;;;;;6.88;4.40;;;11.40;99.90;;;;;;5094751;28;20556;-78
2024/02/19 06:38:37;;;;;;;4.22;2.50;;;11.40;99.90;;;;;;5084915;28;20242;-79
2024/02/19 06:41:25;;;;;;;2.17;1.98;;;11.40;99.90;;;;;;5084869;28;20215;-78
2024/02/19 06:43:58;;;;;;;2.95;2.35;;;11.30;99.90;;;;;;5074211;28;20576;-79
2024/02/19 06:46:25;;;;;;;2.08;1.65;;;11.30;99.90;;;;;;5095186;28;20223;-78
2024/02/19 06:48:59;;;;;;;1.45;1.33;;;11.40;99.90;;;;;;5083780;28;20273;-79
2024/02/19 06:51:27;;;;;;;1.77;1.40;;;11.40;99.90;;;;;;5093489;28;20608;-79
2024/02/19 06:53:54;;;;;;;4.13;1.38;;;11.40;99.90;;;;;;5093593;28;20288;-79
2024/02/19 06:56:23;;;;;;;2.20;1.40;;;11.40;99.90;;;;;;5082850;28;20288;-78
2024/02/19 06:58:50;;;;;;;3.42;2.45;;;11.50;99.90;;;;;;5092709;28;20277;-79
2024/02/19 07:01:20;;;;;;;3.20;2.90;;;11.40;99.90;;;;;;5094149;28;20310;-79
2024/02/19 07:03:48;;;;;;;3.70;3.33;;;11.40;99.90;;;;;;5094320;28;20231;-78
2024/02/19 07:06:19;;;;;;;2.75;2.55;;;11.40;99.90;;;;;;5093646;28;20228;-79
2024/02/19 07:08:48;;;;;;;2.10;1.90;;;11.40;99.90;;;;;;5093731;28;20664;-79
2024/02/19 07:11:15;;;;;;;1.90;1.63;;;11.30;99.90;;;;;;5093424;28;20231;-79
2024/02/19 07:13:43;;;;;;;2.53;1.80;;;11.30;99.90;;;;;;5083157;28;20231;-79
2024/02/19 07:16:10;;;;;;;1.95;1.55;;;11.30;99.90;;;;;;5093857;28;20227;-78
2024/02/19 07:18:39;;;;;;;1.40;1.30;;;11.30;99.90;;;;;;5093310;28;20234;-79
2024/02/19 07:21:08;;;;;;;1.70;1.60;;;11.30;99.90;;;;;;5093168;28;20233;-79
2024/02/19 07:23:35;;;;;;;1.98;1.48;;;11.30;99.90;;;;;;5093342;28;20227;-78
2024/02/19 07:26:03;;;;;;;1.45;1.30;;;11.30;99.90;;;;;;5095235;28;20250;-81
2024/02/19 07:28:30;;;;;;;2.80;2.17;;;11.20;99.90;;;;;;5094087;28;20223;-81
2024/02/19 07:30:57;;;;;;;2.05;1.45;;;11.10;99.90;;;;;;5095950;28;20250;-81
2024/02/19 07:33:24;;;;;;;1.63;1.48;;;11.00;99.90;;;;;;5088485;28;20251;-78
2024/02/19 07:36:14;;;;;;;2.05;1.85;;;10.90;99.90;;;;;;5102492;28;20219;-78
2024/02/19 07:38:47;;;;;;;1.70;1.60;;;11.00;99.90;;;;;;5074593;28;20219;-77
2024/02/19 07:41:19;;;;;;;4.18;2.67;;;10.90;99.90;;;;;;5097761;28;20699;-77
2024/02/19 07:43:49;;;;;;;3.67;3.38;;;10.80;99.90;;;;;;5099660;28;20223;-79
2024/02/19 07:46:18;;;;;;;2.10;1.42;;;10.80;99.90;;;;;;5101362;28;20562;-78
2024/02/19 07:48:45;;;;;;;2.08;1.88;;;10.80;99.90;;;;;;5104867;28;20645;-78
2024/02/19 07:51:17;;;;;;;2.33;1.85;;;10.80;99.90;;;;;;5091494;28;20223;-77
2024/02/19 07:53:44;;;;;;;2.00;1.88;;;10.80;99.90;;;;;;5101576;28;20231;-79
2024/02/19 07:56:11;;;;;;;2.20;1.48;;;10.80;99.90;;;;;;5092388;28;20231;-79
2024/02/19 07:58:39;;;;;;;2.03;1.50;;;10.80;99.90;;;;;;5088509;28;20234;-78
2024/02/19 08:01:06;;;;;;;4.35;1.75;;;10.80;99.90;;;;;;5089577;28;20253;-81
2024/02/19 08:03:33;;;;;;;2.03;1.83;;;10.80;99.90;;;;;;5110625;28;20243;-80
2024/02/19 08:06:01;;;;;;;10.23;7.13;;;10.70;99.90;;;;;;5111119;28;20230;-81
2024/02/19 08:08:31;;;;;;;3.60;3.00;;;10.70;99.90;;;;;;5110011;28;20318;-81
2024/02/19 08:10:58;;;;;;;3.75;1.55;;;10.70;99.90;;;;;;5100571;28;20734;-81
2024/02/19 08:13:37;;;;;;;1.45;1.10;;;10.70;99.90;;;;;;5111145;28;20689;-82
2024/02/19 08:16:05;;;;;;;3.80;1.30;;;10.70;99.90;;;;;;5114639;28;20215;-81
2024/02/19 08:18:32;;;;;;;3.22;1.55;;;10.60;99.90;;;;;;5111797;28;20233;-81
2024/02/19 08:21:01;;;;;;;3.42;2.25;;;10.70;99.90;;;;;;5107783;28;20540;-81
2024/02/19 08:23:29;;;;;;;5.60;1.92;;;10.70;99.90;;;;;;5096716;28;20223;-81
2024/02/19 08:25:56;;;;;;;2.63;1.70;;;10.70;99.90;;;;;;5104184;28;20223;-81
2024/02/19 08:28:26;;;;;;;2.45;2.25;;;10.60;99.90;;;;;;5101813;28;20307;-79
2024/02/19 08:30:56;;;;;;;2.42;1.90;;;10.70;99.90;;;;;;5096939;28;20227;-78
2024/02/19 08:33:23;;;;;;;2.95;2.05;;;10.70;99.90;;;;;;5097261;28;20276;-79
2024/02/19 08:35:51;;;;;;;3.13;1.98;;;10.70;99.90;;;;;;5084594;28;20560;-79
2024/02/19 08:38:18;;;;;;;3.83;1.50;;;10.70;99.90;;;;;;5082860;28;20223;-81
2024/02/19 08:40:47;;;;;;;2.25;1.30;;;10.60;99.90;;;;;;5087328;28;20235;-79
2024/02/19 08:43:15;;;;;;;3.25;1.23;;;10.60;99.90;;;;;;5097694;28;20223;-79
2024/02/19 08:45:42;;;;;;;1.42;1.33;;;10.60;99.90;;;;;;5098232;28;20249;-78
2024/02/19 08:48:09;;;;;;;1.85;1.10;;;10.70;99.90;;;;;;5097669;28;20239;-81
2024/02/19 08:50:36;;;;;;;1.85;1.65;;;10.70;99.90;;;;;;5100668;28;20223;-79
2024/02/19 08:53:04;;;;;;;2.20;1.17;;;10.70;99.90;;;;;;5101620;28;20242;-79
2024/02/19 08:55:32;;;;;;;1.30;1.17;;;10.70;99.90;;;;;;5108720;28;20258;-79
2024/02/19 08:58:00;;;;;;;1.40;1.23;;;10.70;99.90;;;;;;5092792;28;20302;-81
2024/02/19 09:00:27;;;;;;;1.60;1.25;;;10.70;99.90;;;;;;5091823;28;20242;-81
2024/02/19 09:02:57;;;;;;;1.10;1.00;;;10.60;99.90;;;;;;5097593;28;20253;-81
2024/02/19 09:05:26;;;;;;;1.60;1.50;;;10.60;99.90;;;;;;5097669;28;20231;-79
2024/02/19 09:07:56;;;;;;;1.85;1.50;;;10.60;99.90;;;;;;5099237;28;20231;-81
2024/02/19 09:10:25;;;;;;;0.98;0.90;;;10.70;99.90;;;;;;5100104;28;20245;-81
2024/02/19 09:12:52;;;;;;;4.18;3.00;;;10.70;99.90;;;;;;5099538;28;20224;-81
2024/02/19 09:15:20;;;;;;;2.05;1.85;;;10.70;99.90;;;;;;5097989;28;20227;-81
2024/02/19 09:17:48;;;;;;;1.48;1.30;;;10.80;99.90;;;;;;5100074;28;20288;-81
2024/02/19 09:20:16;;;;;;;2.20;2.00;;;10.80;99.90;;;;;;5090070;28;20253;-79
2024/02/19 09:22:44;;;;;;;3.25;2.67;;;10.80;99.90;;;;;;5095277;28;20249;-81
2024/02/19 09:25:34;;;;;;;2.22;1.35;;;10.80;99.90;;;;;;5089368;28;20215;-77
2024/02/19 09:28:06;;;;;;;1.50;1.20;;;10.80;99.90;;;;;;5068176;28;20242;-80
2024/02/19 09:30:39;;;;;;;1.63;1.52;;;10.70;99.90;;;;;;5071607;28;20258;-79
2024/02/19 09:33:07;;;;;;;1.60;1.45;;;10.80;99.90;;;;;;5099549;28;20226;-79
2024/02/19 09:35:34;;;;;;;1.48;1.33;;;10.80;99.90;;;;;;5081172;28;20246;-81
2024/02/19 09:38:02;;;;;;;2.20;1.95;;;10.80;99.90;;;;;;5096592;28;20314;-78
2024/02/19 09:40:32;;;;;;;1.38;1.27;;;10.70;99.90;;;;;;5093783;28;20292;-80
2024/02/19 09:43:00;;;;;;;1.73;1.63;;;10.70;99.90;;;;;;5095083;28;20650;-79
2024/02/19 09:45:35;;;;;;;2.10;1.92;;;10.70;99.90;;;;;;5084135;28;20226;-81
2024/02/19 09:48:07;;;;;;;2.40;1.50;;;10.70;99.90;;;;;;5095803;28;20218;-80
2024/02/19 09:50:35;;;;;;;2.95;2.15;;;10.60;99.90;;;;;;5093622;28;20223;-80
2024/02/19 09:53:18;;;;;;;1.48;1.20;;;10.60;99.90;;;;;;5094670;28;20284;-81
2024/02/19 09:56:00;;;;;;;1.70;1.60;;;10.70;99.90;;;;;;5107062;28;20677;-81
2024/02/19 09:58:28;;;;;;;2.78;1.30;;;10.70;99.90;;;;;;5093145;28;20222;-81
2024/02/19 10:01:07;;;;;;;1.50;1.40;;;10.70;99.90;;;;;;5089337;28;20236;-82
2024/02/19 10:03:35;;;;;;;6.18;5.65;;;10.80;99.90;;;;;;5095747;28;20242;-79
2024/02/19 10:06:03;;;;;;;2.63;2.42;;;10.80;99.90;;;;;;5099813;28;20223;-79
2024/02/19 10:08:30;;;;;;;1.80;1.70;;;10.80;99.90;;;;;;5095116;28;20292;-81
2024/02/19 10:11:34;;;;;;;2.40;2.20;;;10.80;99.90;;;;;;5096775;28;20223;-82
2024/02/19 10:14:01;;;;;;;4.28;3.13;;;10.60;99.90;;;;;;5094306;28;20306;-78
2024/02/19 10:16:29;;;;;;;2.40;2.20;;;10.60;99.90;;;;;;5094770;28;20657;-79
2024/02/19 10:19:11;;;;;;;2.45;2.25;;;10.60;99.90;;;;;;5092782;28;20597;-79
2024/02/19 10:21:38;;;;;;;4.32;2.40;;;10.50;99.90;;;;;;5094208;28;20215;-80
2024/02/19 10:24:06;;;;;;;2.35;2.00;;;10.50;99.90;;;;;;5093391;28;20254;-79
2024/02/19 10:26:33;;;;;;;2.85;2.55;;;10.50;99.90;;;;;;5094191;28;20230;-78
2024/02/19 10:29:00;;;;;;;3.33;3.03;;;10.50;99.90;;;;;;5094472;28;20223;-81
2024/02/19 10:31:31;;;;;;;2.38;2.17;;;10.60;99.90;;;;;;5096191;28;20227;-80
2024/02/19 10:33:58;;;;;;;2.90;2.08;;;10.60;99.90;;;;;;5100609;28;21152;-78
2024/02/19 10:36:27;;;;;;;2.22;1.98;;;10.50;99.90;;;;;;5093392;28;20681;-79
2024/02/19 10:38:57;;;;;;;3.30;2.53;;;10.50;99.90;;;;;;5083983;28;20709;-79
2024/02/19 10:41:24;;;;;;;5.25;2.67;;;10.50;99.90;;;;;;5094439;28;20215;-80
2024/02/19 10:43:52;;;;;;;1.92;1.52;;;10.60;99.90;;;;;;5093224;28;20230;-80
2024/02/19 10:46:21;;;;;;;2.95;1.70;;;10.60;99.90;;;;;;5096524;28;20310;-81
2024/02/19 10:48:51;;;;;;;2.20;1.90;;;10.60;99.90;;;;;;5089299;28;20243;-81
2024/02/19 10:51:20;;;;;;;3.05;1.85;;;10.60;99.90;;;;;;5097777;28;20298;-79
2024/02/19 10:53:57;;;;;;;3.28;1.73;;;10.60;99.90;;;;;;5095425;28;20231;-80
2024/02/19 10:56:24;;;;;;;2.28;1.70;;;10.60;99.90;;;;;;5085220;28;20632;-78
2024/02/19 10:58:59;;;;;;;1.13;1.00;;;10.60;99.90;;;;;;5096842;28;20215;-81
2024/02/19 11:01:41;;;;;;;1.50;1.40;;;10.60;99.90;;;;;;5094949;28;20249;-82
2024/02/19 11:04:23;;;;;;;1.80;1.20;;;10.60;99.90;;;;;;5098235;28;20230;-82
2024/02/19 11:06:52;;;;;;;2.28;1.35;;;10.70;99.90;;;;;;5098188;28;20676;-80
2024/02/19 11:09:21;;;;;;;2.17;1.50;;;10.70;99.90;;;;;;5097981;28;20669;-79
2024/02/19 11:11:56;;;;;;;1.80;1.55;;;10.70;99.90;;;;;;5103911;28;20220;-79
2024/02/19 11:14:24;;;;;;;1.45;1.27;;;10.80;99.90;;;;;;5096165;28;20231;-79
2024/02/19 11:16:51;;;;;;;1.90;1.70;;;10.80;99.90;;;;;;5097655;28;20230;-78
2024/02/19 11:19:19;;;;;;;2.78;2.30;;;10.90;99.90;;;;;;5096535;28;20223;-77
2024/02/19 11:21:47;;;;;;;2.33;2.00;;;10.90;99.90;;;;;;5097909;28;20668;-77
2024/02/19 11:24:16;;;;;;;1.50;1.40;;;10.80;99.90;;;;;;5087320;28;20227;-82
2024/02/19 11:26:45;;;;;;;1.75;1.00;;;10.90;99.90;;;;;;5107756;28;20223;-82
2024/02/19 11:29:17;;;;;;;1.65;1.30;;;10.90;99.90;;;;;;5098879;28;20272;-82
2024/02/19 11:31:45;;;;;;;1.38;1.17;;;10.90;99.90;;;;;;5096919;28;20227;-81
2024/02/19 11:34:19;;;;;;;1.92;1.73;;;11.00;99.90;;;;;;5095816;28;20345;-81
2024/02/19 11:36:46;;;;;;;2.60;1.52;;;11.00;99.90;;;;;;5095879;28;20656;-80
2024/02/19 11:39:13;;;;;;;1.90;1.58;;;10.90;99.90;;;;;;5094747;28;20227;-80
2024/02/19 11:42:14;;;;;;;4.07;3.00;;;10.90;99.90;;;;;;5086671;28;20230;-82
2024/02/19 11:44:43;;;;;;;3.08;2.08;;;10.90;99.90;;;;;;5085618;28;20279;-79
2024/02/19 11:47:19;;;;;;;4.18;3.15;;;10.90;99.90;;;;;;5095565;28;20748;-79
2024/02/19 11:49:59;;;;;;;3.40;2.83;;;10.90;99.90;;;;;;5094687;28;20569;-81
2024/02/19 11:52:26;;;;;;;2.78;1.90;;;10.90;99.90;;;;;;5076801;28;20231;-82
2024/02/19 11:55:05;;;;;;;;;;;;;;;;;;;;;
2024/02/19 11:57:32;;;;;;;1.50;1.40;;;10.80;99.90;;;;;;5095368;28;20223;-82
2024/02/19 12:00:11;;;;;;;1.80;1.55;;;10.90;99.90;;;;;;5095652;28;20554;-80
2024/02/19 12:02:44;;;;;;;4.45;1.50;;;10.90;99.90;;;;;;5084538;28;20256;-78
2024/02/19 12:05:11;;;;;;;1.70;1.50;;;10.90;99.90;;;;;;5094854;28;20228;-79
2024/02/19 12:07:39;;;;;;;1.30;1.20;;;11.00;99.90;;;;;;5094019;28;20227;-81
2024/02/19 12:10:11;;;;;;;1.15;1.05;;;11.00;99.90;;;;;;5095808;28;20223;-81
2024/02/19 12:12:43;;;;;;;1.35;1.25;;;11.10;99.90;;;;;;5095063;28;20689;-81
2024/02/19 12:15:23;;;;;;;2.88;1.52;;;11.00;99.90;;;;;;5074483;28;20234;-82
2024/02/19 12:17:53;;;;;;;1.33;1.23;;;11.10;99.90;;;;;;5094678;28;20227;-82
2024/02/19 12:20:20;;;;;;;2.38;1.60;;;11.10;99.90;;;;;;5095168;28;20254;-82
2024/02/19 12:22:50;;;;;;;1.77;1.08;;;11.10;99.90;;;;;;5084023;28;20227;-78
2024/02/19 12:25:18;;;;;;;1.10;1.00;;;11.10;99.90;;;;;;5094472;28;20239;-79
2024/02/19 12:27:45;;;;;;;1.30;1.20;;;11.20;99.90;;;;;;5094420;28;20280;-79
2024/02/19 12:30:14;;;;;;;1.52;1.02;;;11.20;99.90;;;;;;5084843;28;20748;-79
2024/02/19 12:32:47;;;;;;;1.52;1.23;;;11.20;99.90;;;;;;5083479;28;20614;-79
2024/02/19 12:35:15;;;;;;;2.10;1.52;;;11.20;99.90;;;;;;5085860;28;20612;-79
2024/02/19 12:37:44;;;;;;;3.00;2.30;;;11.30;99.90;;;;;;5094397;28;20272;-79
2024/02/19 12:40:21;;;;;;;2.70;2.45;;;11.30;99.90;;;;;;5085356;28;20595;-79
2024/02/19 12:42:50;;;;;;;3.90;2.40;;;11.40;99.90;;;;;;5094420;28;20303;-79
2024/02/19 12:45:37;;;;;;;5.00;4.18;;;11.50;99.90;;;;;;5094116;28;20231;-78
2024/02/19 12:48:08;;;;;;;2.25;1.90;;;11.50;99.90;;;;;;5093861;28;20233;-82
2024/02/19 12:50:49;;;;;;;1.80;1.35;;;11.50;99.90;;;;;;5094768;28;20234;-78
2024/02/19 12:53:16;;;;;;;1.70;1.60;;;11.40;99.90;;;;;;5066189;28;20233;-79
2024/02/19 12:55:44;;;;;;;1.50;1.40;;;11.50;99.90;;;;;;5084021;28;20223;-81
2024/02/19 12:58:19;;;;;;;1.95;1.75;;;11.40;99.90;;;;;;5072604;28;20235;-82
2024/02/19 13:00:46;;;;;;;1.13;1.02;;;11.50;99.90;;;;;;5094066;28;20230;-82